Palmer, AK

4:40 PM AKST on February 09, 2016 (GMT -0900)
Cedar Hills | | Change Station
CLOSE
Current Station
Personal Weather Station
Location: Palmer, AK
Elevation: 500 ft
Nearby Weather Stations

Elev 500 ft 61.62 °N, 149.12 °W | Updated 7 minutes ago

Clear
Clear
33.1 °F
Feels Like 28 °F
N
5.3
Wind Variable Wind from WNW

Today
High -- | Low -- °F
--% Chance of Precip.
Yesterday
High -- | Low -- °F
Precip. -- in
Pressure 29.98 in
Visibility 10.0 miles
Clouds Clear
Windchill 28 °F
Dew Point 17 °F
Humidity 51%
Rainfall 0.00 in
Snow Depth Not available.
8:58 AM 5:23 PM
Waxing Crescent, 3% visible
METAR PAAQ 100053Z 01008KT 10SM CLR 03/M09 A2997 RMK AO2 SLP152 T00331094
Pressure 29.98 in
Visibility 10.0 miles
Clouds Clear
Windchill 28 °F
Dew Point 17 °F
Humidity 51%
Rainfall 0.00 in
Snow Depth Not available.
8:58 AM 5:23 PM
Waxing Crescent, 3% visible
METAR PAAQ 100053Z 01008KT 10SM CLR 03/M09 A2997 RMK AO2 SLP152 T00331094

10-Day Weather Forecast

Almanac

Astronomy

Feb. 09, 2016 Rise Set
Actual Time
Civil Twilight
Nautical Twilight
Astronomical Twilight
Moon
Length of Visible Light
Length of Day
Tomorrow will be .
, % of the Moon is Illuminated

Today's Extremes

State Highs State Lows

Community

WunderPhotos

Upload Photos

1,891,760 photos uploaded!

WunderBlog® & News

Nearby

Air Quality

  Air Quality AQ Index Pollutant
Not available.

Snow Depth

Station Depth Elevation

Earthquake Activity

City Distance Mag. Time & Date
Minimum magnitude displayed is 2.5.

Coastal Water Temperatures

Place Temperature

Stations

Nearby Weather Stations

Station Location Temp. Windchill Dew Point Humidity Wind Precip. Elev Updated Type
                   

Watches & Warnings

There are currently no watches in effect.